sensor_id;sensor_type;location;lat;lon;timestamp;P1;durP1;ratioP1;P2;durP2;ratioP2
24467;SDS011;12634;50.852;5.676;2023-05-16T00:02:08;9.73;;;2.95;;
24467;SDS011;12634;50.852;5.676;2023-05-16T00:04:35;8.35;;;2.40;;
24467;SDS011;12634;50.852;5.676;2023-05-16T00:07:02;8.10;;;2.47;;
24467;SDS011;12634;50.852;5.676;2023-05-16T00:09:31;9.95;;;2.42;;
24467;SDS011;12634;50.852;5.676;2023-05-16T00:11:58;9.20;;;2.83;;
24467;SDS011;12634;50.852;5.676;2023-05-16T00:14:25;11.32;;;2.75;;
24467;SDS011;12634;50.852;5.676;2023-05-16T00:16:53;7.22;;;2.55;;
24467;SDS011;12634;50.852;5.676;2023-05-16T00:19:22;7.05;;;2.45;;
24467;SDS011;12634;50.852;5.676;2023-05-16T00:21:50;12.30;;;3.63;;
24467;SDS011;12634;50.852;5.676;2023-05-16T00:24:18;6.47;;;2.35;;
24467;SDS011;12634;50.852;5.676;2023-05-16T00:26:46;11.15;;;2.92;;
24467;SDS011;12634;50.852;5.676;2023-05-16T00:29:13;12.25;;;2.63;;
24467;SDS011;12634;50.852;5.676;2023-05-16T00:31:40;7.22;;;2.45;;
24467;SDS011;12634;50.852;5.676;2023-05-16T00:34:07;9.95;;;2.83;;
24467;SDS011;12634;50.852;5.676;2023-05-16T00:36:34;9.73;;;2.63;;
24467;SDS011;12634;50.852;5.676;2023-05-16T00:39:02;5.85;;;2.50;;
24467;SDS011;12634;50.852;5.676;2023-05-16T00:41:29;9.20;;;2.60;;
24467;SDS011;12634;50.852;5.676;2023-05-16T00:43:57;9.02;;;2.72;;
24467;SDS011;12634;50.852;5.676;2023-05-16T00:46:25;13.95;;;3.47;;
24467;SDS011;12634;50.852;5.676;2023-05-16T00:48:52;12.48;;;3.13;;
24467;SDS011;12634;50.852;5.676;2023-05-16T00:51:19;12.68;;;3.00;;
24467;SDS011;12634;50.852;5.676;2023-05-16T00:53:46;9.93;;;2.75;;
24467;SDS011;12634;50.852;5.676;2023-05-16T00:56:13;9.77;;;2.50;;
24467;SDS011;12634;50.852;5.676;2023-05-16T00:58:41;12.15;;;3.33;;
24467;SDS011;12634;50.852;5.676;2023-05-16T01:01:09;11.55;;;2.97;;
24467;SDS011;12634;50.852;5.676;2023-05-16T01:03:36;9.68;;;2.58;;
24467;SDS011;12634;50.852;5.676;2023-05-16T01:06:04;8.57;;;2.80;;
24467;SDS011;12634;50.852;5.676;2023-05-16T01:08:32;14.27;;;2.78;;
24467;SDS011;12634;50.852;5.676;2023-05-16T01:11:01;10.25;;;3.05;;
24467;SDS011;12634;50.852;5.676;2023-05-16T01:13:36;13.75;;;3.53;;
24467;SDS011;12634;50.852;5.676;2023-05-16T01:16:15;12.25;;;3.20;;
24467;SDS011;12634;50.852;5.676;2023-05-16T01:18:47;12.82;;;3.15;;
24467;SDS011;12634;50.852;5.676;2023-05-16T01:21:25;18.70;;;3.53;;
24467;SDS011;12634;50.852;5.676;2023-05-16T01:24:06;18.05;;;3.35;;
24467;SDS011;12634;50.852;5.676;2023-05-16T01:26:41;19.23;;;3.22;;
24467;SDS011;12634;50.852;5.676;2023-05-16T01:29:10;10.95;;;2.70;;
24467;SDS011;12634;50.852;5.676;2023-05-16T01:31:37;13.38;;;2.97;;
24467;SDS011;12634;50.852;5.676;2023-05-16T01:34:04;10.85;;;3.10;;
24467;SDS011;12634;50.852;5.676;2023-05-16T01:36:32;14.98;;;3.65;;
24467;SDS011;12634;50.852;5.676;2023-05-16T01:39:06;15.25;;;3.10;;
24467;SDS011;12634;50.852;5.676;2023-05-16T01:41:42;9.93;;;2.75;;
24467;SDS011;12634;50.852;5.676;2023-05-16T01:44:19;13.32;;;2.58;;
24467;SDS011;12634;50.852;5.676;2023-05-16T01:46:52;11.52;;;2.50;;
24467;SDS011;12634;50.852;5.676;2023-05-16T01:49:24;11.70;;;3.00;;
24467;SDS011;12634;50.852;5.676;2023-05-16T01:51:58;13.38;;;2.72;;
24467;SDS011;12634;50.852;5.676;2023-05-16T01:54:30;14.65;;;2.95;;
24467;SDS011;12634;50.852;5.676;2023-05-16T01:56:59;8.80;;;2.47;;
24467;SDS011;12634;50.852;5.676;2023-05-16T01:59:29;11.30;;;2.65;;
24467;SDS011;12634;50.852;5.676;2023-05-16T02:01:57;10.05;;;2.33;;
24467;SDS011;12634;50.852;5.676;2023-05-16T02:04:24;11.85;;;2.58;;
24467;SDS011;12634;50.852;5.676;2023-05-16T02:06:52;18.77;;;3.58;;
24467;SDS011;12634;50.852;5.676;2023-05-16T02:09:19;11.75;;;2.88;;
24467;SDS011;12634;50.852;5.676;2023-05-16T02:11:46;8.30;;;2.33;;
24467;SDS011;12634;50.852;5.676;2023-05-16T02:14:14;13.10;;;2.80;;
24467;SDS011;12634;50.852;5.676;2023-05-16T02:16:41;29.10;;;3.35;;
24467;SDS011;12634;50.852;5.676;2023-05-16T02:19:08;14.98;;;3.28;;
24467;SDS011;12634;50.852;5.676;2023-05-16T02:21:36;11.20;;;2.58;;
24467;SDS011;12634;50.852;5.676;2023-05-16T02:24:03;17.25;;;3.30;;
24467;SDS011;12634;50.852;5.676;2023-05-16T02:26:30;14.15;;;3.25;;
24467;SDS011;12634;50.852;5.676;2023-05-16T02:28:57;18.02;;;2.75;;
24467;SDS011;12634;50.852;5.676;2023-05-16T02:31:26;14.00;;;2.53;;
24467;SDS011;12634;50.852;5.676;2023-05-16T02:33:54;12.55;;;2.97;;
24467;SDS011;12634;50.852;5.676;2023-05-16T02:36:22;10.27;;;2.33;;
24467;SDS011;12634;50.852;5.676;2023-05-16T02:38:49;13.40;;;2.47;;
24467;SDS011;12634;50.852;5.676;2023-05-16T02:41:16;14.20;;;2.92;;
24467;SDS011;12634;50.852;5.676;2023-05-16T02:43:46;8.95;;;2.05;;
24467;SDS011;12634;50.852;5.676;2023-05-16T02:46:20;17.25;;;3.10;;
24467;SDS011;12634;50.852;5.676;2023-05-16T02:48:49;12.85;;;2.70;;
24467;SDS011;12634;50.852;5.676;2023-05-16T02:51:17;17.15;;;2.63;;
24467;SDS011;12634;50.852;5.676;2023-05-16T02:53:45;12.63;;;2.78;;
24467;SDS011;12634;50.852;5.676;2023-05-16T02:56:12;9.40;;;2.80;;
24467;SDS011;12634;50.852;5.676;2023-05-16T02:58:39;14.38;;;2.53;;
24467;SDS011;12634;50.852;5.676;2023-05-16T03:01:07;27.67;;;3.25;;
24467;SDS011;12634;50.852;5.676;2023-05-16T03:03:35;9.60;;;1.85;;
24467;SDS011;12634;50.852;5.676;2023-05-16T03:06:04;12.20;;;2.30;;
24467;SDS011;12634;50.852;5.676;2023-05-16T03:08:31;12.25;;;2.42;;
24467;SDS011;12634;50.852;5.676;2023-05-16T03:10:59;7.78;;;2.20;;
24467;SDS011;12634;50.852;5.676;2023-05-16T03:13:26;11.73;;;2.15;;
24467;SDS011;12634;50.852;5.676;2023-05-16T03:15:54;11.75;;;2.90;;
24467;SDS011;12634;50.852;5.676;2023-05-16T03:18:21;14.80;;;2.80;;
24467;SDS011;12634;50.852;5.676;2023-05-16T03:20:48;11.10;;;2.53;;
24467;SDS011;12634;50.852;5.676;2023-05-16T03:23:18;16.02;;;2.60;;
24467;SDS011;12634;50.852;5.676;2023-05-16T03:25:45;13.15;;;2.63;;
24467;SDS011;12634;50.852;5.676;2023-05-16T03:28:13;9.98;;;2.28;;
24467;SDS011;12634;50.852;5.676;2023-05-16T03:30:42;13.23;;;2.47;;
24467;SDS011;12634;50.852;5.676;2023-05-16T03:33:09;18.33;;;2.67;;
24467;SDS011;12634;50.852;5.676;2023-05-16T03:35:36;7.53;;;1.67;;
24467;SDS011;12634;50.852;5.676;2023-05-16T03:38:03;8.80;;;2.17;;
24467;SDS011;12634;50.852;5.676;2023-05-16T03:40:32;11.90;;;1.77;;
24467;SDS011;12634;50.852;5.676;2023-05-16T03:42:59;14.23;;;2.70;;
24467;SDS011;12634;50.852;5.676;2023-05-16T03:45:26;13.55;;;2.28;;
24467;SDS011;12634;50.852;5.676;2023-05-16T03:47:54;12.52;;;2.60;;
24467;SDS011;12634;50.852;5.676;2023-05-16T03:50:21;14.75;;;3.13;;
24467;SDS011;12634;50.852;5.676;2023-05-16T03:52:49;13.38;;;2.22;;
24467;SDS011;12634;50.852;5.676;2023-05-16T03:55:18;8.57;;;1.65;;
24467;SDS011;12634;50.852;5.676;2023-05-16T03:57:46;12.38;;;1.98;;
24467;SDS011;12634;50.852;5.676;2023-05-16T04:00:14;16.38;;;2.20;;
24467;SDS011;12634;50.852;5.676;2023-05-16T04:02:42;6.85;;;1.67;;
24467;SDS011;12634;50.852;5.676;2023-05-16T04:05:09;11.13;;;2.50;;
24467;SDS011;12634;50.852;5.676;2023-05-16T04:07:38;11.70;;;2.13;;
24467;SDS011;12634;50.852;5.676;2023-05-16T04:10:05;12.98;;;2.17;;
24467;SDS011;12634;50.852;5.676;2023-05-16T04:12:33;11.27;;;2.03;;
24467;SDS011;12634;50.852;5.676;2023-05-16T04:15:01;8.77;;;1.70;;
24467;SDS011;12634;50.852;5.676;2023-05-16T04:17:29;14.48;;;2.42;;
24467;SDS011;12634;50.852;5.676;2023-05-16T04:19:57;9.05;;;1.77;;
24467;SDS011;12634;50.852;5.676;2023-05-16T04:22:24;12.35;;;2.35;;
24467;SDS011;12634;50.852;5.676;2023-05-16T04:24:51;9.35;;;1.85;;
24467;SDS011;12634;50.852;5.676;2023-05-16T04:27:18;7.15;;;1.77;;
24467;SDS011;12634;50.852;5.676;2023-05-16T04:29:45;16.77;;;2.10;;
24467;SDS011;12634;50.852;5.676;2023-05-16T04:32:14;7.93;;;1.50;;
24467;SDS011;12634;50.852;5.676;2023-05-16T04:34:42;10.85;;;2.00;;
24467;SDS011;12634;50.852;5.676;2023-05-16T04:37:10;11.93;;;2.20;;
24467;SDS011;12634;50.852;5.676;2023-05-16T04:39:38;12.63;;;1.95;;
24467;SDS011;12634;50.852;5.676;2023-05-16T04:42:05;14.45;;;2.45;;
24467;SDS011;12634;50.852;5.676;2023-05-16T04:44:32;8.50;;;1.83;;
24467;SDS011;12634;50.852;5.676;2023-05-16T04:46:59;11.68;;;2.40;;
24467;SDS011;12634;50.852;5.676;2023-05-16T04:49:28;11.30;;;2.50;;
24467;SDS011;12634;50.852;5.676;2023-05-16T04:51:55;9.68;;;2.15;;
24467;SDS011;12634;50.852;5.676;2023-05-16T04:54:22;11.57;;;2.00;;
24467;SDS011;12634;50.852;5.676;2023-05-16T04:56:50;7.72;;;1.85;;
24467;SDS011;12634;50.852;5.676;2023-05-16T04:59:17;9.13;;;1.88;;
24467;SDS011;12634;50.852;5.676;2023-05-16T05:01:45;13.52;;;2.13;;
24467;SDS011;12634;50.852;5.676;2023-05-16T05:04:12;12.88;;;1.90;;
24467;SDS011;12634;50.852;5.676;2023-05-16T05:06:41;11.10;;;1.90;;
24467;SDS011;12634;50.852;5.676;2023-05-16T05:09:08;11.80;;;1.98;;
24467;SDS011;12634;50.852;5.676;2023-05-16T05:11:35;8.50;;;1.95;;
24467;SDS011;12634;50.852;5.676;2023-05-16T05:14:02;11.60;;;2.15;;
24467;SDS011;12634;50.852;5.676;2023-05-16T05:16:29;7.07;;;1.75;;
24467;SDS011;12634;50.852;5.676;2023-05-16T05:18:57;17.20;;;2.15;;
24467;SDS011;12634;50.852;5.676;2023-05-16T05:21:24;11.77;;;2.30;;
24467;SDS011;12634;50.852;5.676;2023-05-16T05:23:52;13.18;;;2.05;;
24467;SDS011;12634;50.852;5.676;2023-05-16T05:26:19;11.57;;;2.20;;
24467;SDS011;12634;50.852;5.676;2023-05-16T05:28:47;11.88;;;2.08;;
24467;SDS011;12634;50.852;5.676;2023-05-16T05:31:14;10.00;;;2.10;;
24467;SDS011;12634;50.852;5.676;2023-05-16T05:33:41;11.55;;;2.28;;
24467;SDS011;12634;50.852;5.676;2023-05-16T05:36:09;8.88;;;1.73;;
24467;SDS011;12634;50.852;5.676;2023-05-16T05:38:36;7.53;;;2.10;;
24467;SDS011;12634;50.852;5.676;2023-05-16T05:41:04;11.43;;;1.73;;
24467;SDS011;12634;50.852;5.676;2023-05-16T05:43:32;11.70;;;2.00;;
24467;SDS011;12634;50.852;5.676;2023-05-16T05:45:59;11.60;;;2.50;;
24467;SDS011;12634;50.852;5.676;2023-05-16T05:48:26;8.40;;;1.63;;
24467;SDS011;12634;50.852;5.676;2023-05-16T05:50:54;9.60;;;2.60;;
24467;SDS011;12634;50.852;5.676;2023-05-16T05:53:21;8.85;;;1.88;;
24467;SDS011;12634;50.852;5.676;2023-05-16T05:55:48;9.25;;;1.75;;
24467;SDS011;12634;50.852;5.676;2023-05-16T05:58:17;11.13;;;1.65;;
24467;SDS011;12634;50.852;5.676;2023-05-16T06:00:44;10.40;;;2.20;;
24467;SDS011;12634;50.852;5.676;2023-05-16T06:03:11;8.82;;;1.77;;
24467;SDS011;12634;50.852;5.676;2023-05-16T06:05:38;12.48;;;2.28;;
24467;SDS011;12634;50.852;5.676;2023-05-16T06:08:06;8.35;;;2.38;;
24467;SDS011;12634;50.852;5.676;2023-05-16T06:10:33;10.45;;;2.00;;
24467;SDS011;12634;50.852;5.676;2023-05-16T06:13:00;7.28;;;1.35;;
24467;SDS011;12634;50.852;5.676;2023-05-16T06:15:29;10.55;;;2.60;;
24467;SDS011;12634;50.852;5.676;2023-05-16T06:17:56;9.48;;;1.55;;
24467;SDS011;12634;50.852;5.676;2023-05-16T06:20:23;15.52;;;2.10;;
24467;SDS011;12634;50.852;5.676;2023-05-16T06:22:50;10.32;;;2.35;;
24467;SDS011;12634;50.852;5.676;2023-05-16T06:25:17;6.32;;;1.33;;
24467;SDS011;12634;50.852;5.676;2023-05-16T06:27:45;13.80;;;1.77;;
24467;SDS011;12634;50.852;5.676;2023-05-16T06:30:12;8.95;;;1.85;;
24467;SDS011;12634;50.852;5.676;2023-05-16T06:32:41;6.15;;;1.10;;
24467;SDS011;12634;50.852;5.676;2023-05-16T06:35:08;6.70;;;1.50;;
24467;SDS011;12634;50.852;5.676;2023-05-16T06:37:35;13.98;;;2.28;;
24467;SDS011;12634;50.852;5.676;2023-05-16T06:40:03;8.32;;;1.83;;
24467;SDS011;12634;50.852;5.676;2023-05-16T06:42:30;8.55;;;1.50;;
24467;SDS011;12634;50.852;5.676;2023-05-16T06:44:58;15.60;;;1.83;;
24467;SDS011;12634;50.852;5.676;2023-05-16T06:47:25;9.52;;;1.83;;
24467;SDS011;12634;50.852;5.676;2023-05-16T06:49:53;11.80;;;1.83;;
24467;SDS011;12634;50.852;5.676;2023-05-16T06:52:21;7.78;;;1.65;;
24467;SDS011;12634;50.852;5.676;2023-05-16T06:54:48;8.90;;;1.77;;
24467;SDS011;12634;50.852;5.676;2023-05-16T06:57:15;11.15;;;1.83;;
24467;SDS011;12634;50.852;5.676;2023-05-16T06:59:42;6.78;;;1.75;;
24467;SDS011;12634;50.852;5.676;2023-05-16T07:02:09;8.50;;;1.98;;
24467;SDS011;12634;50.852;5.676;2023-05-16T07:04:36;4.85;;;1.45;;
24467;SDS011;12634;50.852;5.676;2023-05-16T07:07:05;10.05;;;1.85;;
24467;SDS011;12634;50.852;5.676;2023-05-16T07:09:33;9.95;;;1.70;;
24467;SDS011;12634;50.852;5.676;2023-05-16T07:12:00;7.82;;;1.33;;
24467;SDS011;12634;50.852;5.676;2023-05-16T07:14:27;6.70;;;1.35;;
24467;SDS011;12634;50.852;5.676;2023-05-16T07:16:54;5.07;;;1.33;;
24467;SDS011;12634;50.852;5.676;2023-05-16T07:19:21;9.93;;;1.92;;
24467;SDS011;12634;50.852;5.676;2023-05-16T07:21:49;3.95;;;1.50;;
24467;SDS011;12634;50.852;5.676;2023-05-16T07:24:17;6.60;;;1.70;;
24467;SDS011;12634;50.852;5.676;2023-05-16T07:26:44;7.10;;;1.23;;
24467;SDS011;12634;50.852;5.676;2023-05-16T07:29:11;6.80;;;1.00;;
24467;SDS011;12634;50.852;5.676;2023-05-16T07:31:39;10.23;;;1.60;;
24467;SDS011;12634;50.852;5.676;2023-05-16T07:34:06;10.18;;;1.40;;
24467;SDS011;12634;50.852;5.676;2023-05-16T07:36:33;5.80;;;1.20;;
24467;SDS011;12634;50.852;5.676;2023-05-16T07:39:00;6.85;;;1.17;;
24467;SDS011;12634;50.852;5.676;2023-05-16T07:41:29;5.13;;;1.42;;
24467;SDS011;12634;50.852;5.676;2023-05-16T07:43:56;7.07;;;1.27;;
24467;SDS011;12634;50.852;5.676;2023-05-16T07:46:23;10.45;;;1.70;;
24467;SDS011;12634;50.852;5.676;2023-05-16T07:48:50;6.50;;;1.20;;
24467;SDS011;12634;50.852;5.676;2023-05-16T07:51:18;6.38;;;1.95;;
24467;SDS011;12634;50.852;5.676;2023-05-16T07:53:45;4.97;;;1.55;;
24467;SDS011;12634;50.852;5.676;2023-05-16T07:56:12;9.38;;;1.40;;
24467;SDS011;12634;50.852;5.676;2023-05-16T07:58:41;4.75;;;0.93;;
24467;SDS011;12634;50.852;5.676;2023-05-16T08:01:08;6.43;;;1.30;;
24467;SDS011;12634;50.852;5.676;2023-05-16T08:03:36;6.78;;;1.55;;
24467;SDS011;12634;50.852;5.676;2023-05-16T08:06:03;9.10;;;1.40;;
24467;SDS011;12634;50.852;5.676;2023-05-16T08:08:30;7.60;;;1.17;;
24467;SDS011;12634;50.852;5.676;2023-05-16T08:10:57;7.47;;;1.35;;
24467;SDS011;12634;50.852;5.676;2023-05-16T08:13:24;2.95;;;0.90;;
24467;SDS011;12634;50.852;5.676;2023-05-16T08:15:53;6.95;;;1.13;;
24467;SDS011;12634;50.852;5.676;2023-05-16T08:18:20;5.07;;;0.93;;
24467;SDS011;12634;50.852;5.676;2023-05-16T08:20:48;5.43;;;1.10;;
24467;SDS011;12634;50.852;5.676;2023-05-16T08:23:15;4.47;;;1.75;;
24467;SDS011;12634;50.852;5.676;2023-05-16T08:25:42;7.07;;;1.02;;
24467;SDS011;12634;50.852;5.676;2023-05-16T08:28:09;6.30;;;1.63;;
24467;SDS011;12634;50.852;5.676;2023-05-16T08:30:37;5.70;;;1.08;;
24467;SDS011;12634;50.852;5.676;2023-05-16T08:33:06;5.20;;;1.50;;
24467;SDS011;12634;50.852;5.676;2023-05-16T08:35:34;6.78;;;1.15;;
24467;SDS011;12634;50.852;5.676;2023-05-16T08:38:01;5.93;;;1.00;;
24467;SDS011;12634;50.852;5.676;2023-05-16T08:40:28;3.47;;;0.93;;
24467;SDS011;12634;50.852;5.676;2023-05-16T08:42:56;5.60;;;1.20;;
24467;SDS011;12634;50.852;5.676;2023-05-16T08:45:23;4.07;;;1.15;;
24467;SDS011;12634;50.852;5.676;2023-05-16T08:47:53;5.45;;;0.98;;
24467;SDS011;12634;50.852;5.676;2023-05-16T08:50:22;5.60;;;1.35;;
24467;SDS011;12634;50.852;5.676;2023-05-16T08:52:50;7.22;;;1.20;;
24467;SDS011;12634;50.852;5.676;2023-05-16T08:55:18;10.80;;;1.65;;
24467;SDS011;12634;50.852;5.676;2023-05-16T08:57:47;4.88;;;1.10;;
24467;SDS011;12634;50.852;5.676;2023-05-16T09:00:16;5.72;;;1.02;;
24467;SDS011;12634;50.852;5.676;2023-05-16T09:02:44;6.88;;;1.23;;
24467;SDS011;12634;50.852;5.676;2023-05-16T09:05:12;5.47;;;1.17;;
24467;SDS011;12634;50.852;5.676;2023-05-16T09:07:42;4.40;;;1.08;;
24467;SDS011;12634;50.852;5.676;2023-05-16T09:10:10;7.25;;;1.10;;
24467;SDS011;12634;50.852;5.676;2023-05-16T09:12:38;2.67;;;1.00;;
24467;SDS011;12634;50.852;5.676;2023-05-16T09:15:06;7.47;;;0.77;;
24467;SDS011;12634;50.852;5.676;2023-05-16T09:17:36;5.53;;;1.75;;
24467;SDS011;12634;50.852;5.676;2023-05-16T09:20:07;7.10;;;1.08;;
24467;SDS011;12634;50.852;5.676;2023-05-16T09:22:36;6.07;;;1.38;;
24467;SDS011;12634;50.852;5.676;2023-05-16T09:25:05;3.03;;;0.82;;
24467;SDS011;12634;50.852;5.676;2023-05-16T09:27:33;4.97;;;1.00;;
24467;SDS011;12634;50.852;5.676;2023-05-16T09:30:00;5.20;;;1.00;;
24467;SDS011;12634;50.852;5.676;2023-05-16T09:32:28;3.85;;;0.98;;
24467;SDS011;12634;50.852;5.676;2023-05-16T09:34:57;4.13;;;0.98;;
24467;SDS011;12634;50.852;5.676;2023-05-16T09:37:24;2.85;;;0.70;;
24467;SDS011;12634;50.852;5.676;2023-05-16T09:39:52;5.35;;;1.17;;
24467;SDS011;12634;50.852;5.676;2023-05-16T09:42:21;6.55;;;1.33;;
24467;SDS011;12634;50.852;5.676;2023-05-16T09:44:50;5.43;;;1.05;;
24467;SDS011;12634;50.852;5.676;2023-05-16T09:47:20;4.10;;;1.10;;
24467;SDS011;12634;50.852;5.676;2023-05-16T09:49:50;6.65;;;1.88;;
24467;SDS011;12634;50.852;5.676;2023-05-16T09:52:18;6.80;;;1.30;;
24467;SDS011;12634;50.852;5.676;2023-05-16T09:54:46;5.05;;;1.10;;
24467;SDS011;12634;50.852;5.676;2023-05-16T09:57:16;2.88;;;0.85;;
24467;SDS011;12634;50.852;5.676;2023-05-16T09:59:45;5.20;;;1.35;;
24467;SDS011;12634;50.852;5.676;2023-05-16T10:02:12;3.45;;;1.05;;
24467;SDS011;12634;50.852;5.676;2023-05-16T10:04:40;3.05;;;0.90;;
24467;SDS011;12634;50.852;5.676;2023-05-16T10:07:07;4.40;;;1.23;;
24467;SDS011;12634;50.852;5.676;2023-05-16T10:09:35;10.77;;;1.33;;
24467;SDS011;12634;50.852;5.676;2023-05-16T10:12:05;5.88;;;0.98;;
24467;SDS011;12634;50.852;5.676;2023-05-16T10:14:36;8.70;;;1.10;;
24467;SDS011;12634;50.852;5.676;2023-05-16T10:17:08;4.60;;;1.10;;
24467;SDS011;12634;50.852;5.676;2023-05-16T10:19:39;7.82;;;1.33;;
24467;SDS011;12634;50.852;5.676;2023-05-16T10:22:08;3.47;;;0.80;;
24467;SDS011;12634;50.852;5.676;2023-05-16T10:24:38;8.02;;;1.10;;
24467;SDS011;12634;50.852;5.676;2023-05-16T10:27:13;5.20;;;1.23;;
24467;SDS011;12634;50.852;5.676;2023-05-16T10:29:41;2.67;;;0.95;;
24467;SDS011;12634;50.852;5.676;2023-05-16T10:32:11;2.85;;;0.80;;
24467;SDS011;12634;50.852;5.676;2023-05-16T10:34:39;6.18;;;1.17;;
24467;SDS011;12634;50.852;5.676;2023-05-16T10:37:08;4.50;;;0.95;;
24467;SDS011;12634;50.852;5.676;2023-05-16T10:39:35;3.90;;;1.00;;
24467;SDS011;12634;50.852;5.676;2023-05-16T10:42:05;4.97;;;1.23;;
24467;SDS011;12634;50.852;5.676;2023-05-16T10:44:32;4.10;;;1.05;;
24467;SDS011;12634;50.852;5.676;2023-05-16T10:46:59;4.80;;;1.05;;
24467;SDS011;12634;50.852;5.676;2023-05-16T10:49:30;3.63;;;1.08;;
24467;SDS011;12634;50.852;5.676;2023-05-16T10:52:05;3.75;;;0.85;;
24467;SDS011;12634;50.852;5.676;2023-05-16T10:54:36;6.07;;;0.98;;
24467;SDS011;12634;50.852;5.676;2023-05-16T10:57:05;4.78;;;1.13;;
24467;SDS011;12634;50.852;5.676;2023-05-16T10:59:41;5.28;;;1.10;;
24467;SDS011;12634;50.852;5.676;2023-05-16T11:02:20;4.32;;;0.95;;
24467;SDS011;12634;50.852;5.676;2023-05-16T11:04:52;2.83;;;0.70;;
24467;SDS011;12634;50.852;5.676;2023-05-16T11:07:21;3.55;;;1.10;;
24467;SDS011;12634;50.852;5.676;2023-05-16T11:10:01;3.20;;;0.90;;
24467;SDS011;12634;50.852;5.676;2023-05-16T11:12:36;3.03;;;0.70;;
24467;SDS011;12634;50.852;5.676;2023-05-16T11:15:18;4.88;;;0.93;;
24467;SDS011;12634;50.852;5.676;2023-05-16T11:17:48;3.80;;;0.80;;
24467;SDS011;12634;50.852;5.676;2023-05-16T11:20:26;4.45;;;0.90;;
24467;SDS011;12634;50.852;5.676;2023-05-16T11:25:47;4.20;;;1.00;;
24467;SDS011;12634;50.852;5.676;2023-05-16T11:28:17;3.25;;;1.20;;
24467;SDS011;12634;50.852;5.676;2023-05-16T11:30:45;5.32;;;1.20;;
24467;SDS011;12634;50.852;5.676;2023-05-16T11:33:13;6.72;;;1.00;;
24467;SDS011;12634;50.852;5.676;2023-05-16T11:35:42;6.05;;;0.93;;
24467;SDS011;12634;50.852;5.676;2023-05-16T11:38:13;8.43;;;0.85;;
24467;SDS011;12634;50.852;5.676;2023-05-16T11:40:41;4.50;;;0.90;;
24467;SDS011;12634;50.852;5.676;2023-05-16T11:43:09;4.43;;;0.93;;
24467;SDS011;12634;50.852;5.676;2023-05-16T11:45:37;6.07;;;1.15;;
24467;SDS011;12634;50.852;5.676;2023-05-16T11:48:04;7.82;;;1.10;;
24467;SDS011;12634;50.852;5.676;2023-05-16T11:50:33;4.88;;;0.73;;
24467;SDS011;12634;50.852;5.676;2023-05-16T11:53:02;3.72;;;0.90;;
24467;SDS011;12634;50.852;5.676;2023-05-16T11:55:29;2.85;;;0.90;;
24467;SDS011;12634;50.852;5.676;2023-05-16T11:57:58;4.78;;;1.00;;
24467;SDS011;12634;50.852;5.676;2023-05-16T12:00:26;3.65;;;1.25;;
24467;SDS011;12634;50.852;5.676;2023-05-16T12:02:54;5.03;;;0.90;;
24467;SDS011;12634;50.852;5.676;2023-05-16T12:05:27;6.70;;;1.33;;
24467;SDS011;12634;50.852;5.676;2023-05-16T12:07:55;4.10;;;0.70;;
24467;SDS011;12634;50.852;5.676;2023-05-16T12:10:25;11.27;;;1.17;;
24467;SDS011;12634;50.852;5.676;2023-05-16T12:12:52;3.58;;;0.93;;
24467;SDS011;12634;50.852;5.676;2023-05-16T12:15:20;4.55;;;1.30;;
24467;SDS011;12634;50.852;5.676;2023-05-16T12:17:49;3.38;;;0.82;;
24467;SDS011;12634;50.852;5.676;2023-05-16T12:20:16;4.50;;;1.00;;
24467;SDS011;12634;50.852;5.676;2023-05-16T12:22:44;3.30;;;0.65;;
24467;SDS011;12634;50.852;5.676;2023-05-16T12:25:22;4.80;;;0.98;;
24467;SDS011;12634;50.852;5.676;2023-05-16T12:27:53;5.85;;;1.10;;
24467;SDS011;12634;50.852;5.676;2023-05-16T12:30:21;5.53;;;1.00;;
24467;SDS011;12634;50.852;5.676;2023-05-16T12:32:54;3.60;;;1.10;;
24467;SDS011;12634;50.852;5.676;2023-05-16T12:35:22;5.32;;;0.93;;
24467;SDS011;12634;50.852;5.676;2023-05-16T12:37:49;5.45;;;1.38;;
24467;SDS011;12634;50.852;5.676;2023-05-16T12:40:18;3.47;;;0.93;;
24467;SDS011;12634;50.852;5.676;2023-05-16T12:42:47;6.22;;;1.00;;
24467;SDS011;12634;50.852;5.676;2023-05-16T12:45:15;4.72;;;0.93;;
24467;SDS011;12634;50.852;5.676;2023-05-16T12:47:43;3.30;;;0.93;;
24467;SDS011;12634;50.852;5.676;2023-05-16T12:50:11;2.92;;;0.77;;
24467;SDS011;12634;50.852;5.676;2023-05-16T12:52:47;9.98;;;1.15;;
24467;SDS011;12634;50.852;5.676;2023-05-16T12:55:15;4.60;;;0.73;;
24467;SDS011;12634;50.852;5.676;2023-05-16T12:57:42;5.10;;;1.20;;
24467;SDS011;12634;50.852;5.676;2023-05-16T13:00:13;5.03;;;0.88;;
24467;SDS011;12634;50.852;5.676;2023-05-16T13:02:42;3.70;;;0.80;;
24467;SDS011;12634;50.852;5.676;2023-05-16T13:05:10;8.48;;;1.65;;
24467;SDS011;12634;50.852;5.676;2023-05-16T13:07:37;4.57;;;0.80;;
24467;SDS011;12634;50.852;5.676;2023-05-16T13:10:05;2.75;;;0.90;;
24467;SDS011;12634;50.852;5.676;2023-05-16T13:12:34;3.10;;;0.75;;
24467;SDS011;12634;50.852;5.676;2023-05-16T13:15:03;2.42;;;0.70;;
24467;SDS011;12634;50.852;5.676;2023-05-16T13:17:33;4.57;;;0.85;;
24467;SDS011;12634;50.852;5.676;2023-05-16T13:20:00;5.53;;;1.00;;
24467;SDS011;12634;50.852;5.676;2023-05-16T13:22:29;5.20;;;1.02;;
24467;SDS011;12634;50.852;5.676;2023-05-16T13:24:56;2.85;;;0.73;;
24467;SDS011;12634;50.852;5.676;2023-05-16T13:27:23;4.50;;;1.10;;
24467;SDS011;12634;50.852;5.676;2023-05-16T13:29:50;6.80;;;1.30;;
24467;SDS011;12634;50.852;5.676;2023-05-16T13:32:17;3.35;;;1.00;;
24467;SDS011;12634;50.852;5.676;2023-05-16T13:34:46;5.65;;;1.38;;
24467;SDS011;12634;50.852;5.676;2023-05-16T13:37:13;5.85;;;1.10;;
24467;SDS011;12634;50.852;5.676;2023-05-16T13:39:40;3.85;;;1.17;;
24467;SDS011;12634;50.852;5.676;2023-05-16T13:42:07;3.97;;;1.00;;
24467;SDS011;12634;50.852;5.676;2023-05-16T13:44:35;5.97;;;1.35;;
24467;SDS011;12634;50.852;5.676;2023-05-16T13:47:02;3.63;;;0.75;;
24467;SDS011;12634;50.852;5.676;2023-05-16T13:49:29;5.32;;;1.15;;
24467;SDS011;12634;50.852;5.676;2023-05-16T13:51:58;5.13;;;1.00;;
24467;SDS011;12634;50.852;5.676;2023-05-16T13:54:25;3.65;;;0.90;;
24467;SDS011;12634;50.852;5.676;2023-05-16T13:56:52;3.95;;;1.05;;
24467;SDS011;12634;50.852;5.676;2023-05-16T13:59:20;1.90;;;0.73;;
24467;SDS011;12634;50.852;5.676;2023-05-16T14:01:47;5.80;;;1.08;;
24467;SDS011;12634;50.852;5.676;2023-05-16T14:04:14;4.20;;;1.00;;
24467;SDS011;12634;50.852;5.676;2023-05-16T14:06:41;6.93;;;1.10;;
24467;SDS011;12634;50.852;5.676;2023-05-16T14:09:10;4.22;;;0.80;;
24467;SDS011;12634;50.852;5.676;2023-05-16T14:11:40;4.57;;;1.00;;
24467;SDS011;12634;50.852;5.676;2023-05-16T14:14:07;4.20;;;0.93;;
24467;SDS011;12634;50.852;5.676;2023-05-16T14:16:34;9.07;;;1.27;;
24467;SDS011;12634;50.852;5.676;2023-05-16T14:19:01;5.25;;;0.90;;
24467;SDS011;12634;50.852;5.676;2023-05-16T14:21:28;6.13;;;1.00;;
24467;SDS011;12634;50.852;5.676;2023-05-16T14:23:55;6.07;;;1.10;;
24467;SDS011;12634;50.852;5.676;2023-05-16T14:26:24;5.93;;;1.42;;
24467;SDS011;12634;50.852;5.676;2023-05-16T14:28:51;6.70;;;1.48;;
24467;SDS011;12634;50.852;5.676;2023-05-16T14:31:20;3.80;;;1.08;;
24467;SDS011;12634;50.852;5.676;2023-05-16T14:33:47;4.93;;;1.60;;
24467;SDS011;12634;50.852;5.676;2023-05-16T14:36:14;3.58;;;1.20;;
24467;SDS011;12634;50.852;5.676;2023-05-16T14:38:41;3.60;;;1.05;;
24467;SDS011;12634;50.852;5.676;2023-05-16T14:41:08;6.90;;;1.35;;
24467;SDS011;12634;50.852;5.676;2023-05-16T14:43:37;5.63;;;1.00;;
24467;SDS011;12634;50.852;5.676;2023-05-16T14:46:04;6.35;;;1.30;;
24467;SDS011;12634;50.852;5.676;2023-05-16T14:48:31;6.30;;;1.10;;
24467;SDS011;12634;50.852;5.676;2023-05-16T14:50:59;4.95;;;0.90;;
24467;SDS011;12634;50.852;5.676;2023-05-16T14:53:26;5.32;;;1.50;;